sensor_id;sensor_type;location;lat;lon;timestamp;pressure;altitude;pressure_sealevel;temperature;humidity
19526;BME280;9907;42.676;26.348;2023-02-22T00:00:41;98623.81;;;14.13;43.68
19526;BME280;9907;42.676;26.348;2023-02-22T00:05:38;98630.34;;;14.19;43.63
19526;BME280;9907;42.676;26.348;2023-02-22T00:08:06;98639.75;;;14.15;44.19
19526;BME280;9907;42.676;26.348;2023-02-22T00:10:34;98638.72;;;14.24;43.47
19526;BME280;9907;42.676;26.348;2023-02-22T00:13:06;98643.75;;;14.19;44.00
19526;BME280;9907;42.676;26.348;2023-02-22T00:15:32;98644.78;;;14.18;44.78
19526;BME280;9907;42.676;26.348;2023-02-22T00:17:58;98644.78;;;14.18;44.45
19526;BME280;9907;42.676;26.348;2023-02-22T00:20:24;98634.41;;;14.15;44.45
19526;BME280;9907;42.676;26.348;2023-02-22T00:22:50;98634.53;;;14.13;44.39
19526;BME280;9907;42.676;26.348;2023-02-22T00:25:21;98643.44;;;14.14;44.36
19526;BME280;9907;42.676;26.348;2023-02-22T00:27:48;98629.69;;;14.09;44.83
19526;BME280;9907;42.676;26.348;2023-02-22T00:30:21;98635.53;;;14.12;45.17
19526;BME280;9907;42.676;26.348;2023-02-22T00:32:47;98630.03;;;14.14;45.14
19526;BME280;9907;42.676;26.348;2023-02-22T00:35:15;98638.22;;;14.12;45.51
19526;BME280;9907;42.676;26.348;2023-02-22T00:37:41;98641.41;;;14.16;45.13
19526;BME280;9907;42.676;26.348;2023-02-22T00:40:09;98631.38;;;14.10;45.49
19526;BME280;9907;42.676;26.348;2023-02-22T00:42:35;98636.25;;;14.14;45.02
19526;BME280;9907;42.676;26.348;2023-02-22T00:45:03;98631.22;;;14.11;45.61
19526;BME280;9907;42.676;26.348;2023-02-22T00:47:32;98630.03;;;14.06;45.46
19526;BME280;9907;42.676;26.348;2023-02-22T00:50:08;98645.63;;;14.02;45.42
19526;BME280;9907;42.676;26.348;2023-02-22T00:52:34;98649.16;;;14.03;45.91
19526;BME280;9907;42.676;26.348;2023-02-22T00:55:00;98634.56;;;14.05;45.66
19526;BME280;9907;42.676;26.348;2023-02-22T00:57:26;98653.00;;;14.08;45.67
19526;BME280;9907;42.676;26.348;2023-02-22T00:59:51;98641.41;;;14.08;45.91
19526;BME280;9907;42.676;26.348;2023-02-22T01:02:17;98634.22;;;14.08;45.75
19526;BME280;9907;42.676;26.348;2023-02-22T01:04:42;98650.66;;;14.05;45.83
19526;BME280;9907;42.676;26.348;2023-02-22T01:07:08;98647.47;;;14.02;46.12
19526;BME280;9907;42.676;26.348;2023-02-22T01:09:36;98633.41;;;14.00;46.35
19526;BME280;9907;42.676;26.348;2023-02-22T01:12:04;98629.03;;;13.99;46.51
19526;BME280;9907;42.676;26.348;2023-02-22T01:14:29;98633.72;;;13.97;46.17
19526;BME280;9907;42.676;26.348;2023-02-22T01:16:55;98637.22;;;13.97;46.47
19526;BME280;9907;42.676;26.348;2023-02-22T01:19:22;98637.75;;;13.93;46.67
19526;BME280;9907;42.676;26.348;2023-02-22T01:21:48;98629.03;;;13.99;46.64
19526;BME280;9907;42.676;26.348;2023-02-22T01:24:16;98634.75;;;13.96;46.66
19526;BME280;9907;42.676;26.348;2023-02-22T01:26:43;98636.38;;;13.97;46.75
19526;BME280;9907;42.676;26.348;2023-02-22T01:29:13;98631.22;;;13.95;46.55
19526;BME280;9907;42.676;26.348;2023-02-22T01:31:41;98631.22;;;13.87;46.96
19526;BME280;9907;42.676;26.348;2023-02-22T01:34:09;98636.56;;;13.87;46.81
19526;BME280;9907;42.676;26.348;2023-02-22T01:36:35;98634.03;;;13.86;46.77
19526;BME280;9907;42.676;26.348;2023-02-22T01:39:00;98634.06;;;13.78;47.35
19526;BME280;9907;42.676;26.348;2023-02-22T01:41:26;98644.28;;;13.82;46.54
19526;BME280;9907;42.676;26.348;2023-02-22T01:43:51;98639.75;;;13.83;46.76
19526;BME280;9907;42.676;26.348;2023-02-22T01:46:23;98637.75;;;13.77;47.49
19526;BME280;9907;42.676;26.348;2023-02-22T01:48:54;98637.06;;;13.83;47.31
19526;BME280;9907;42.676;26.348;2023-02-22T01:51:30;98634.72;;;13.80;47.12
19526;BME280;9907;42.676;26.348;2023-02-22T01:54:15;98626.84;;;13.78;47.00
19526;BME280;9907;42.676;26.348;2023-02-22T01:59:26;98623.66;;;13.83;46.91
19526;BME280;9907;42.676;26.348;2023-02-22T02:01:53;98625.50;;;13.82;46.93
19526;BME280;9907;42.676;26.348;2023-02-22T02:04:20;98624.31;;;13.77;46.93
19526;BME280;9907;42.676;26.348;2023-02-22T02:06:52;98636.06;;;13.68;47.19
19526;BME280;9907;42.676;26.348;2023-02-22T02:11:59;98630.38;;;13.62;47.38
19526;BME280;9907;42.676;26.348;2023-02-22T02:14:30;98634.69;;;13.63;47.20
19526;BME280;9907;42.676;26.348;2023-02-22T02:17:06;98631.03;;;13.73;46.51
19526;BME280;9907;42.676;26.348;2023-02-22T02:34:00;98638.06;;;13.41;46.81
19526;BME280;9907;42.676;26.348;2023-02-22T02:39:26;98641.41;;;13.51;46.86
19526;BME280;9907;42.676;26.348;2023-02-22T02:41:59;98661.19;;;13.50;46.54
19526;BME280;9907;42.676;26.348;2023-02-22T02:44:38;98654.50;;;13.54;47.09
19526;BME280;9907;42.676;26.348;2023-02-22T02:47:20;98650.28;;;13.44;46.85
19526;BME280;9907;42.676;26.348;2023-02-22T02:49:50;98656.16;;;13.47;46.55
19526;BME280;9907;42.676;26.348;2023-02-22T02:52:20;98665.88;;;13.40;47.12
19526;BME280;9907;42.676;26.348;2023-02-22T02:54:48;98663.00;;;13.42;46.96
19526;BME280;9907;42.676;26.348;2023-02-22T02:57:17;98652.94;;;13.36;47.12
19526;BME280;9907;42.676;26.348;2023-02-22T02:59:43;98653.97;;;13.43;46.90
19526;BME280;9907;42.676;26.348;2023-02-22T03:07:57;98662.69;;;13.37;47.42
19526;BME280;9907;42.676;26.348;2023-02-22T03:10:37;98655.78;;;13.34;47.39
19526;BME280;9907;42.676;26.348;2023-02-22T03:16:11;98665.19;;;13.30;47.56
19526;BME280;9907;42.676;26.348;2023-02-22T03:24:48;98659.94;;;13.21;48.03
19526;BME280;9907;42.676;26.348;2023-02-22T03:27:26;98653.63;;;13.30;47.40
19526;BME280;9907;42.676;26.348;2023-02-22T03:29:56;98665.81;;;13.24;47.72
19526;BME280;9907;42.676;26.348;2023-02-22T03:32:28;98652.50;;;13.06;48.04
19526;BME280;9907;42.676;26.348;2023-02-22T03:34:59;98642.09;;;13.03;48.08
19526;BME280;9907;42.676;26.348;2023-02-22T03:37:31;98655.72;;;13.10;48.01
19526;BME280;9907;42.676;26.348;2023-02-22T03:39:59;98657.56;;;13.09;47.97
19526;BME280;9907;42.676;26.348;2023-02-22T03:42:34;98656.94;;;13.24;47.57
19526;BME280;9907;42.676;26.348;2023-02-22T03:45:03;98657.22;;;13.12;47.74
19526;BME280;9907;42.676;26.348;2023-02-22T03:47:43;98667.81;;;13.14;47.97
19526;BME280;9907;42.676;26.348;2023-02-22T03:50:17;98666.44;;;13.10;47.90
19526;BME280;9907;42.676;26.348;2023-02-22T03:52:45;98660.69;;;13.05;48.21
19526;BME280;9907;42.676;26.348;2023-02-22T03:55:13;98644.34;;;13.16;48.17
19526;BME280;9907;42.676;26.348;2023-02-22T03:57:45;98659.94;;;13.21;48.13
19526;BME280;9907;42.676;26.348;2023-02-22T04:00:18;98660.78;;;13.21;47.88
19526;BME280;9907;42.676;26.348;2023-02-22T04:02:45;98646.19;;;13.15;47.83
19526;BME280;9907;42.676;26.348;2023-02-22T04:05:11;98652.38;;;13.16;47.75
19526;BME280;9907;42.676;26.348;2023-02-22T04:07:39;98657.22;;;13.12;48.15
19526;BME280;9907;42.676;26.348;2023-02-22T04:10:05;98648.34;;;13.12;48.02
19526;BME280;9907;42.676;26.348;2023-02-22T04:12:34;98651.50;;;13.07;48.17
19526;BME280;9907;42.676;26.348;2023-02-22T04:15:06;98632.75;;;13.07;48.13
19526;BME280;9907;42.676;26.348;2023-02-22T04:17:32;98653.16;;;13.08;48.11
19526;BME280;9907;42.676;26.348;2023-02-22T04:19:58;98638.56;;;13.03;48.64
19526;BME280;9907;42.676;26.348;2023-02-22T04:22:23;98638.53;;;12.95;48.66
19526;BME280;9907;42.676;26.348;2023-02-22T04:24:49;98646.41;;;12.88;48.67
19526;BME280;9907;42.676;26.348;2023-02-22T04:27:15;98647.34;;;12.79;48.79
19526;BME280;9907;42.676;26.348;2023-02-22T04:29:40;98652.66;;;12.97;48.43
19526;BME280;9907;42.676;26.348;2023-02-22T04:32:06;98663.88;;;13.00;48.39
19526;BME280;9907;42.676;26.348;2023-02-22T04:34:32;98654.28;;;12.98;48.42
19526;BME280;9907;42.676;26.348;2023-02-22T04:36:57;98671.38;;;12.89;48.68
19526;BME280;9907;42.676;26.348;2023-02-22T04:39:23;98658.00;;;12.97;48.39
19526;BME280;9907;42.676;26.348;2023-02-22T04:41:48;98659.63;;;12.90;49.46
19526;BME280;9907;42.676;26.348;2023-02-22T04:44:14;98649.44;;;12.93;48.81
19526;BME280;9907;42.676;26.348;2023-02-22T04:46:39;98660.66;;;12.89;48.79
19526;BME280;9907;42.676;26.348;2023-02-22T04:49:05;98656.00;;;12.99;48.75
19526;BME280;9907;42.676;26.348;2023-02-22T04:51:30;98664.91;;;13.07;48.80
19526;BME280;9907;42.676;26.348;2023-02-22T04:53:56;98660.19;;;13.01;48.74
19526;BME280;9907;42.676;26.348;2023-02-22T04:56:22;98666.56;;;13.00;48.75
19526;BME280;9907;42.676;26.348;2023-02-22T04:58:47;98678.78;;;13.03;48.60
19526;BME280;9907;42.676;26.348;2023-02-22T05:01:14;98672.72;;;12.93;49.12
19526;BME280;9907;42.676;26.348;2023-02-22T05:03:40;98676.25;;;12.93;48.93
19526;BME280;9907;42.676;26.348;2023-02-22T05:06:06;98670.72;;;12.95;49.05
19526;BME280;9907;42.676;26.348;2023-02-22T05:08:32;98679.59;;;12.95;49.55
19526;BME280;9907;42.676;26.348;2023-02-22T05:10:57;98683.41;;;12.85;49.43
19526;BME280;9907;42.676;26.348;2023-02-22T05:13:23;98683.56;;;12.83;49.31
19526;BME280;9907;42.676;26.348;2023-02-22T05:15:48;98686.72;;;12.79;49.50
19526;BME280;9907;42.676;26.348;2023-02-22T05:18:14;98692.09;;;12.53;50.40
19526;BME280;9907;42.676;26.348;2023-02-22T05:20:40;98688.13;;;12.13;50.17
19526;BME280;9907;42.676;26.348;2023-02-22T05:23:05;98701.13;;;12.08;50.95
19526;BME280;9907;42.676;26.348;2023-02-22T05:25:31;98699.84;;;12.12;50.90
19526;BME280;9907;42.676;26.348;2023-02-22T05:28:03;98704.38;;;12.12;50.65
19526;BME280;9907;42.676;26.348;2023-02-22T05:30:32;98716.53;;;11.89;50.88
19526;BME280;9907;42.676;26.348;2023-02-22T05:32:59;98730.75;;;11.71;51.02
19526;BME280;9907;42.676;26.348;2023-02-22T05:35:25;98724.59;;;11.61;53.01
19526;BME280;9907;42.676;26.348;2023-02-22T05:37:51;98725.97;;;11.65;52.26
19526;BME280;9907;42.676;26.348;2023-02-22T05:40:19;98725.31;;;11.63;51.75
19526;BME280;9907;42.676;26.348;2023-02-22T05:42:49;98723.47;;;11.64;51.57
19526;BME280;9907;42.676;26.348;2023-02-22T05:45:16;98728.19;;;11.52;51.54
19526;BME280;9907;42.676;26.348;2023-02-22T05:47:42;98740.19;;;11.48;51.75
19526;BME280;9907;42.676;26.348;2023-02-22T05:50:09;98730.16;;;11.50;52.15
19526;BME280;9907;42.676;26.348;2023-02-22T05:52:36;98744.91;;;11.54;51.73
19526;BME280;9907;42.676;26.348;2023-02-22T05:55:06;98745.53;;;11.48;52.31
19526;BME280;9907;42.676;26.348;2023-02-22T05:57:32;98746.41;;;11.66;51.83
19526;BME280;9907;42.676;26.348;2023-02-22T05:59:59;98747.97;;;11.42;52.33
19526;BME280;9907;42.676;26.348;2023-02-22T06:02:31;98754.84;;;11.44;52.81
19526;BME280;9907;42.676;26.348;2023-02-22T06:05:00;98758.91;;;11.21;52.72
19526;BME280;9907;42.676;26.348;2023-02-22T06:07:25;98764.38;;;10.92;53.48
19526;BME280;9907;42.676;26.348;2023-02-22T06:09:51;98766.13;;;11.11;53.57
19526;BME280;9907;42.676;26.348;2023-02-22T06:12:18;98771.63;;;11.37;53.37
19526;BME280;9907;42.676;26.348;2023-02-22T06:14:44;98769.16;;;11.26;53.03
19526;BME280;9907;42.676;26.348;2023-02-22T06:17:12;98766.88;;;11.31;53.42
19526;BME280;9907;42.676;26.348;2023-02-22T06:19:38;98767.84;;;11.57;52.74
19526;BME280;9907;42.676;26.348;2023-02-22T06:22:04;98771.00;;;11.52;53.09
19526;BME280;9907;42.676;26.348;2023-02-22T06:24:30;98775.41;;;11.44;52.62
19526;BME280;9907;42.676;26.348;2023-02-22T06:26:58;98786.72;;;11.55;52.48
19526;BME280;9907;42.676;26.348;2023-02-22T06:29:25;98780.09;;;11.59;52.87
19526;BME280;9907;42.676;26.348;2023-02-22T06:31:51;98791.88;;;11.39;53.11
19526;BME280;9907;42.676;26.348;2023-02-22T06:34:16;98786.63;;;11.47;53.24
19526;BME280;9907;42.676;26.348;2023-02-22T06:36:42;98778.41;;;11.58;52.70
19526;BME280;9907;42.676;26.348;2023-02-22T06:39:12;98781.22;;;12.02;52.27
19526;BME280;9907;42.676;26.348;2023-02-22T06:41:44;98783.47;;;12.06;52.06
19526;BME280;9907;42.676;26.348;2023-02-22T06:44:10;98773.50;;;11.99;52.39
19526;BME280;9907;42.676;26.348;2023-02-22T06:46:37;98781.72;;;12.15;52.16
19526;BME280;9907;42.676;26.348;2023-02-22T06:49:03;98779.94;;;12.06;52.09
19526;BME280;9907;42.676;26.348;2023-02-22T06:51:29;98780.84;;;12.32;52.17
19526;BME280;9907;42.676;26.348;2023-02-22T06:53:55;98769.50;;;12.38;51.74
19526;BME280;9907;42.676;26.348;2023-02-22T06:56:23;98770.81;;;12.52;51.20
19526;BME280;9907;42.676;26.348;2023-02-22T06:58:49;98769.00;;;12.86;50.49
19526;BME280;9907;42.676;26.348;2023-02-22T07:01:17;98772.38;;;12.62;50.79
19526;BME280;9907;42.676;26.348;2023-02-22T07:03:43;98769.44;;;12.99;50.33
19526;BME280;9907;42.676;26.348;2023-02-22T07:06:08;98769.69;;;12.88;50.97
19526;BME280;9907;42.676;26.348;2023-02-22T07:08:35;98767.94;;;13.05;50.65
19526;BME280;9907;42.676;26.348;2023-02-22T07:11:00;98760.31;;;13.10;49.82
19526;BME280;9907;42.676;26.348;2023-02-22T07:13:26;98755.78;;;13.44;49.25
19526;BME280;9907;42.676;26.348;2023-02-22T07:15:51;98757.09;;;13.40;49.78
19526;BME280;9907;42.676;26.348;2023-02-22T07:18:23;98743.31;;;13.35;49.34
19526;BME280;9907;42.676;26.348;2023-02-22T07:20:49;98747.13;;;13.25;50.15
19526;BME280;9907;42.676;26.348;2023-02-22T07:23:15;98747.38;;;13.47;49.41
19526;BME280;9907;42.676;26.348;2023-02-22T07:25:42;98755.47;;;13.55;49.67
19526;BME280;9907;42.676;26.348;2023-02-22T07:28:08;98749.88;;;14.07;48.59
19526;BME280;9907;42.676;26.348;2023-02-22T07:30:35;98752.91;;;14.04;48.50
19526;BME280;9907;42.676;26.348;2023-02-22T07:33:11;98746.88;;;14.50;47.68
19526;BME280;9907;42.676;26.348;2023-02-22T07:35:48;98739.16;;;14.47;48.82
19526;BME280;9907;42.676;26.348;2023-02-22T07:38:15;98749.88;;;14.31;47.85
19526;BME280;9907;42.676;26.348;2023-02-22T07:40:41;98749.22;;;14.53;48.07
19526;BME280;9907;42.676;26.348;2023-02-22T07:43:17;98749.56;;;14.50;47.63
19526;BME280;9907;42.676;26.348;2023-02-22T07:45:44;98757.63;;;14.42;47.65
19526;BME280;9907;42.676;26.348;2023-02-22T07:48:11;98751.56;;;14.73;47.69
19526;BME280;9907;42.676;26.348;2023-02-22T07:50:38;98754.69;;;15.00;46.90
19526;BME280;9907;42.676;26.348;2023-02-22T07:53:07;98749.50;;;14.99;47.13
19526;BME280;9907;42.676;26.348;2023-02-22T07:55:35;98747.75;;;15.22;46.92
19526;BME280;9907;42.676;26.348;2023-02-22T07:58:03;98740.00;;;15.19;47.19
19526;BME280;9907;42.676;26.348;2023-02-22T08:00:35;98747.38;;;15.33;47.14
19526;BME280;9907;42.676;26.348;2023-02-22T08:03:03;98739.59;;;15.38;46.66
19526;BME280;9907;42.676;26.348;2023-02-22T08:05:29;98745.09;;;15.53;46.86
19526;BME280;9907;42.676;26.348;2023-02-22T08:07:55;98747.28;;;15.57;46.28
19526;BME280;9907;42.676;26.348;2023-02-22T08:10:23;98742.78;;;15.81;46.30
19526;BME280;9907;42.676;26.348;2023-02-22T08:12:52;98740.75;;;16.05;46.33
19526;BME280;9907;42.676;26.348;2023-02-22T08:15:22;98736.31;;;15.90;46.24
19526;BME280;9907;42.676;26.348;2023-02-22T08:17:48;98740.69;;;15.91;46.91
19526;BME280;9907;42.676;26.348;2023-02-22T08:20:15;98752.09;;;15.93;45.87
19526;BME280;9907;42.676;26.348;2023-02-22T08:22:43;98741.34;;;15.93;45.82
19526;BME280;9907;42.676;26.348;2023-02-22T08:25:10;98745.72;;;15.94;45.73
19526;BME280;9907;42.676;26.348;2023-02-22T08:27:35;98748.69;;;16.07;46.08
19526;BME280;9907;42.676;26.348;2023-02-22T08:30:01;98738.06;;;16.28;45.32
19526;BME280;9907;42.676;26.348;2023-02-22T08:32:26;98730.31;;;16.48;45.07
19526;BME280;9907;42.676;26.348;2023-02-22T08:34:52;98732.94;;;16.33;45.66
19526;BME280;9907;42.676;26.348;2023-02-22T08:37:19;98735.13;;;16.15;46.11
19526;BME280;9907;42.676;26.348;2023-02-22T08:39:44;98740.16;;;16.18;45.79
19526;BME280;9907;42.676;26.348;2023-02-22T08:42:10;98734.16;;;16.31;46.03
19526;BME280;9907;42.676;26.348;2023-02-22T08:44:37;98734.84;;;16.33;46.12
19526;BME280;9907;42.676;26.348;2023-02-22T08:47:04;98729.47;;;16.70;45.34
19526;BME280;9907;42.676;26.348;2023-02-22T08:49:30;98722.03;;;16.72;45.11
19526;BME280;9907;42.676;26.348;2023-02-22T08:51:56;98725.53;;;16.58;45.47
19526;BME280;9907;42.676;26.348;2023-02-22T08:54:23;98715.03;;;16.78;45.22
19526;BME280;9907;42.676;26.348;2023-02-22T08:56:49;98715.16;;;16.99;45.41
19526;BME280;9907;42.676;26.348;2023-02-22T08:59:15;98715.63;;;16.73;45.77
19526;BME280;9907;42.676;26.348;2023-02-22T09:01:42;98716.53;;;16.66;45.84
19526;BME280;9907;42.676;26.348;2023-02-22T09:04:07;98721.56;;;16.69;45.38
19526;BME280;9907;42.676;26.348;2023-02-22T09:06:33;98721.47;;;16.62;46.04
19526;BME280;9907;42.676;26.348;2023-02-22T09:08:59;98721.28;;;16.78;45.03
19526;BME280;9907;42.676;26.348;2023-02-22T09:11:24;98723.63;;;16.81;44.75
19526;BME280;9907;42.676;26.348;2023-02-22T09:13:50;98714.97;;;16.86;45.65
19526;BME280;9907;42.676;26.348;2023-02-22T09:16:15;98713.00;;;16.80;45.70
19526;BME280;9907;42.676;26.348;2023-02-22T09:18:41;98710.31;;;16.94;44.76
19526;BME280;9907;42.676;26.348;2023-02-22T09:21:06;98713.47;;;16.83;44.86
19526;BME280;9907;42.676;26.348;2023-02-22T09:23:32;98705.41;;;16.98;44.51
19526;BME280;9907;42.676;26.348;2023-02-22T09:25:59;98704.06;;;17.23;44.84
19526;BME280;9907;42.676;26.348;2023-02-22T09:28:26;98706.19;;;17.42;44.20
19526;BME280;9907;42.676;26.348;2023-02-22T09:30:51;98701.78;;;17.56;43.92
19526;BME280;9907;42.676;26.348;2023-02-22T09:33:18;98696.97;;;17.66;43.38
19526;BME280;9907;42.676;26.348;2023-02-22T09:35:45;98683.31;;;17.74;42.99
19526;BME280;9907;42.676;26.348;2023-02-22T09:38:13;98684.66;;;17.99;43.28
19526;BME280;9907;42.676;26.348;2023-02-22T09:40:44;98694.09;;;18.10;42.27
19526;BME280;9907;42.676;26.348;2023-02-22T09:51:19;98666.53;;;18.42;39.75
19526;BME280;9907;42.676;26.348;2023-02-22T09:53:47;98664.53;;;18.51;39.78
19526;BME280;9907;42.676;26.348;2023-02-22T09:56:18;98666.44;;;18.57;40.36
19526;BME280;9907;42.676;26.348;2023-02-22T09:58:49;98660.97;;;18.51;39.21
19526;BME280;9907;42.676;26.348;2023-02-22T10:06:36;98643.47;;;19.15;39.10
19526;BME280;9907;42.676;26.348;2023-02-22T10:09:03;98645.84;;;19.31;38.57
19526;BME280;9907;42.676;26.348;2023-02-22T10:11:56;98641.88;;;19.27;38.51
19526;BME280;9907;42.676;26.348;2023-02-22T10:17:35;98633.06;;;19.19;39.09
19526;BME280;9907;42.676;26.348;2023-02-22T10:20:17;98630.31;;;19.47;37.89
19526;BME280;9907;42.676;26.348;2023-02-22T10:22:54;98630.38;;;19.19;38.98
19526;BME280;9907;42.676;26.348;2023-02-22T10:25:26;98625.34;;;19.09;38.68
19526;BME280;9907;42.676;26.348;2023-02-22T10:28:03;98619.91;;;19.03;37.47
19526;BME280;9907;42.676;26.348;2023-02-22T10:30:33;98610.00;;;19.29;38.58
19526;BME280;9907;42.676;26.348;2023-02-22T10:35:39;98619.81;;;19.37;38.66
19526;BME280;9907;42.676;26.348;2023-02-22T10:38:27;98622.19;;;19.06;37.69
19526;BME280;9907;42.676;26.348;2023-02-22T10:43:38;98609.22;;;18.88;39.04
19526;BME280;9907;42.676;26.348;2023-02-22T10:46:07;98610.09;;;18.95;38.62
19526;BME280;9907;42.676;26.348;2023-02-22T10:48:37;98610.03;;;18.88;38.61
19526;BME280;9907;42.676;26.348;2023-02-22T10:51:07;98611.16;;;19.07;38.31
19526;BME280;9907;42.676;26.348;2023-02-22T10:53:33;98613.44;;;19.04;37.68
19526;BME280;9907;42.676;26.348;2023-02-22T10:56:17;98604.09;;;18.65;38.11
19526;BME280;9907;42.676;26.348;2023-02-22T10:58:52;98608.41;;;18.60;38.57
19526;BME280;9907;42.676;26.348;2023-02-22T11:06:30;98594.91;;;18.66;38.16
19526;BME280;9907;42.676;26.348;2023-02-22T11:09:12;98599.88;;;18.63;38.26
19526;BME280;9907;42.676;26.348;2023-02-22T11:11:42;98593.03;;;18.60;38.37
19526;BME280;9907;42.676;26.348;2023-02-22T11:14:09;98588.03;;;19.05;39.60
19526;BME280;9907;42.676;26.348;2023-02-22T11:16:48;98587.28;;;19.24;38.50
19526;BME280;9907;42.676;26.348;2023-02-22T11:21:46;98585.25;;;19.32;39.36
19526;BME280;9907;42.676;26.348;2023-02-22T11:24:20;98575.03;;;19.34;37.32
19526;BME280;9907;42.676;26.348;2023-02-22T11:26:52;98581.47;;;19.27;36.87
19526;BME280;9907;42.676;26.348;2023-02-22T11:29:24;98580.19;;;19.23;38.00
19526;BME280;9907;42.676;26.348;2023-02-22T11:31:53;98581.00;;;19.10;38.02
19526;BME280;9907;42.676;26.348;2023-02-22T11:34:27;98581.00;;;19.10;38.26
19526;BME280;9907;42.676;26.348;2023-02-22T11:36:55;98573.66;;;19.04;38.69
19526;BME280;9907;42.676;26.348;2023-02-22T11:39:28;98568.13;;;19.25;38.01
19526;BME280;9907;42.676;26.348;2023-02-22T11:41:55;98573.75;;;19.30;37.69
19526;BME280;9907;42.676;26.348;2023-02-22T11:44:29;98580.00;;;19.18;37.48
19526;BME280;9907;42.676;26.348;2023-02-22T11:46:57;98573.06;;;19.02;37.71
19526;BME280;9907;42.676;26.348;2023-02-22T11:49:35;98562.22;;;19.02;38.41
19526;BME280;9907;42.676;26.348;2023-02-22T11:52:30;98575.94;;;18.94;37.59
19526;BME280;9907;42.676;26.348;2023-02-22T12:09:05;98567.22;;;18.58;36.97
19526;BME280;9907;42.676;26.348;2023-02-22T12:11:58;98574.06;;;18.54;36.98
19526;BME280;9907;42.676;26.348;2023-02-22T12:14:43;98561.16;;;18.56;36.96
19526;BME280;9907;42.676;26.348;2023-02-22T12:19:46;98564.53;;;18.64;37.86
19526;BME280;9907;42.676;26.348;2023-02-22T12:22:21;98560.41;;;18.68;37.07
19526;BME280;9907;42.676;26.348;2023-02-22T12:24:59;98572.47;;;18.66;37.13
19526;BME280;9907;42.676;26.348;2023-02-22T12:27:34;98565.13;;;18.60;37.40
19526;BME280;9907;42.676;26.348;2023-02-22T12:30:06;98562.84;;;18.57;36.74
19526;BME280;9907;42.676;26.348;2023-02-22T12:32:46;98568.44;;;18.55;36.72
19526;BME280;9907;42.676;26.348;2023-02-22T12:35:25;98559.50;;;18.55;36.63
19526;BME280;9907;42.676;26.348;2023-02-22T12:40:46;98566.38;;;18.57;37.21
19526;BME280;9907;42.676;26.348;2023-02-22T12:43:28;98562.22;;;18.55;37.45
19526;BME280;9907;42.676;26.348;2023-02-22T12:46:14;98560.78;;;18.59;36.85
19526;BME280;9907;42.676;26.348;2023-02-22T12:53:51;98553.44;;;18.53;36.37
19526;BME280;9907;42.676;26.348;2023-02-22T12:56:24;98551.13;;;18.49;37.32
19526;BME280;9907;42.676;26.348;2023-02-22T12:59:02;98559.09;;;18.58;36.86
19526;BME280;9907;42.676;26.348;2023-02-22T13:01:36;98558.88;;;18.59;37.33
19526;BME280;9907;42.676;26.348;2023-02-22T13:04:04;98559.72;;;18.60;37.28
19526;BME280;9907;42.676;26.348;2023-02-22T13:12:16;98559.75;;;18.66;37.73
19526;BME280;9907;42.676;26.348;2023-02-22T13:23:18;98563.84;;;18.56;38.54
19526;BME280;9907;42.676;26.348;2023-02-22T13:26:08;98576.75;;;18.54;38.08
19526;BME280;9907;42.676;26.348;2023-02-22T13:28:47;98563.59;;;18.51;38.48
19526;BME280;9907;42.676;26.348;2023-02-22T13:33:53;98556.53;;;18.49;38.66
19526;BME280;9907;42.676;26.348;2023-02-22T13:37:00;98571.28;;;18.47;37.61
19526;BME280;9907;42.676;26.348;2023-02-22T13:39:38;98562.09;;;18.41;37.42
19526;BME280;9907;42.676;26.348;2023-02-22T13:52:56;98555.66;;;18.42;38.53
19526;BME280;9907;42.676;26.348;2023-02-22T13:55:26;98560.81;;;18.37;38.46
19526;BME280;9907;42.676;26.348;2023-02-22T13:58:07;98568.47;;;18.34;38.15
19526;BME280;9907;42.676;26.348;2023-02-22T14:13:20;98565.56;;;18.29;38.98
19526;BME280;9907;42.676;26.348;2023-02-22T14:18:28;98573.16;;;18.19;38.97
19526;BME280;9907;42.676;26.348;2023-02-22T14:21:11;98572.53;;;18.17;38.88
19526;BME280;9907;42.676;26.348;2023-02-22T14:26:24;98575.19;;;18.10;39.57
19526;BME280;9907;42.676;26.348;2023-02-22T14:28:53;98584.06;;;18.04;40.02
19526;BME280;9907;42.676;26.348;2023-02-22T14:31:24;98563.94;;;18.07;40.20
19526;BME280;9907;42.676;26.348;2023-02-22T14:41:49;98576.75;;;17.98;40.42
19526;BME280;9907;42.676;26.348;2023-02-22T14:44:21;98577.38;;;18.00;40.28
19526;BME280;9907;42.676;26.348;2023-02-22T14:46:49;98577.78;;;17.97;40.70
19526;BME280;9907;42.676;26.348;2023-02-22T14:49:20;98580.16;;;17.85;40.47
19526;BME280;9907;42.676;26.348;2023-02-22T14:51:55;98591.19;;;17.84;41.24
19526;BME280;9907;42.676;26.348;2023-02-22T14:54:35;98586.97;;;17.81;41.53
19526;BME280;9907;42.676;26.348;2023-02-22T14:57:29;98587.94;;;17.74;41.47
19526;BME280;9907;42.676;26.348;2023-02-22T15:00:04;98591.03;;;17.71;41.56
19526;BME280;9907;42.676;26.348;2023-02-22T15:02:49;98585.84;;;17.69;41.93
19526;BME280;9907;42.676;26.348;2023-02-22T15:05:17;98589.13;;;17.65;42.25
19526;BME280;9907;42.676;26.348;2023-02-22T15:07:54;98596.13;;;17.59;41.84
19526;BME280;9907;42.676;26.348;2023-02-22T15:13:18;98596.69;;;17.55;42.26
19526;BME280;9907;42.676;26.348;2023-02-22T15:15:48;98592.03;;;17.48;42.76
19526;BME280;9907;42.676;26.348;2023-02-22T15:20:55;98590.03;;;17.36;42.88
19526;BME280;9907;42.676;26.348;2023-02-22T15:23:37;98595.00;;;17.32;43.22
19526;BME280;9907;42.676;26.348;2023-02-22T15:26:04;98602.03;;;17.33;43.60
19526;BME280;9907;42.676;26.348;2023-02-22T15:28:29;98593.25;;;17.25;43.90
19526;BME280;9907;42.676;26.348;2023-02-22T15:33:53;98599.31;;;17.12;43.94
19526;BME280;9907;42.676;26.348;2023-02-22T15:36:21;98602.66;;;17.14;44.15
19526;BME280;9907;42.676;26.348;2023-02-22T15:38:50;98602.38;;;17.09;43.93
19526;BME280;9907;42.676;26.348;2023-02-22T15:41:27;98597.66;;;16.96;44.58
19526;BME280;9907;42.676;26.348;2023-02-22T15:44:00;98604.56;;;16.99;44.17
19526;BME280;9907;42.676;26.348;2023-02-22T15:46:27;98593.75;;;16.99;44.38
19526;BME280;9907;42.676;26.348;2023-02-22T15:51:46;98604.00;;;16.74;44.52